Data for 01/23/2011

Time Sea-Level Adjusted Pressure Absolute Pressure Temperature Relative Humidity Dew Point   
(mb) (inHg) (mb) (inHg) (C) (F) (%) (C) (F)
00:05 1019 30.09 848 25.04 -5.3 22.5 67 -10.6 13
00:10 1019 30.09 848 25.04 -5.2 22.6 66 -10.7 12.8
00:15 1019 30.09 849 25.07 -5 23 66 -10.3 13.4
00:20 1019 30.09 849 25.07 -4.8 23.3 66 -10.2 13.6
00:25 1019 30.09 848 25.04 -4.8 23.4 65 -10.5 13.2
00:30 1019 30.09 848 25.04 -4.5 24 63 -10.4 13.2
00:35 1019 30.09 848 25.04 -5 22.9 69 -9.8 14.4
00:40 1019 30.09 848 25.04 -5.5 22.2 67 -10.7 12.7
00:45 1019 30.09 848 25.04 -5.6 21.9 68 -10.6 12.8
00:50 1019 30.09 848 25.04 -5.5 22.1 66 -10.9 12.4
00:55 1019 30.09 848 25.04 -5.4 22.2 66 -10.9 12.4
01:00 1019 30.09 848 25.04 -5 22.9 64 -10.8 12.5
01:05 1019 30.09 848 25.04 -5 23.1 65 -10.5 13.1
01:10 1019 30.09 848 25.04 -5.3 22.5 66 -10.7 12.7
01:15 1019 30.09 848 25.04 -5.1 22.9 64 -10.8 12.5
01:20 1019 30.09 848 25.04 -5.1 22.9 64 -10.8 12.5
01:25 1018 30.06 848 25.04 -5.2 22.7 63 -11.1 12
01:30 1018 30.06 848 25.04 -5 22.9 64 -10.8 12.6
01:35 1018 30.06 847 25.01 -5.4 22.4 68 -10.4 13.3
01:40 1018 30.06 847 25.01 -5.7 21.7 68 -10.7 12.8
01:45 1018 30.06 847 25.01 -5.7 21.7 65 -11.3 11.6
01:50 1018 30.06 847 25.01 -5.5 22.2 63 -11.3 11.6
01:55 1018 30.06 847 25.01 -5.8 21.6 68 -10.8 12.6
02:00 1018 30.06 847 25.01 -5.9 21.4 68 -10.9 12.4
02:05 1018 30.06 847 25.01 -5.8 21.6 66 -11.1 12.1
02:10 1018 30.06 847 25.01 -4.9 23.1 61 -11.3 11.7
02:15 1018 30.06 847 25.01 -5.5 22.1 65 -11.2 11.9
02:20 1018 30.06 847 25.01 -6 21.3 66 -11.3 11.6
02:25 1018 30.06 847 25.01 -6 21.1 67 -11.3 11.7
02:30 1018 30.06 847 25.01 -5.5 22.1 63 -11.5 11.2
02:35 1018 30.06 847 25.01 -5.5 22.1 64 -11.4 11.5
02:40 1018 30.06 847 25.01 -5.6 21.9 63 -11.5 11.3
02:45 1018 30.06 847 25.01 -5.6 21.9 64 -11.4 11.5
02:50 1018 30.06 847 25.01 -5.5 22.2 63 -11.4 11.4
02:55 1018 30.06 847 25.01 -5.4 22.4 64 -11.1 12
03:00 1018 30.06 847 25.01 -5.4 22.3 63 -11.3 11.6
03:05 1018 30.06 847 25.01 -5.6 22 64 -11.4 11.5
03:10 1018 30.06 847 25.01 -5.5 22 63 -11.5 11.3
03:15 1018 30.06 847 25.01 -5.6 22 63 -11.5 11.2
03:20 1018 30.06 847 25.01 -5.6 22 63 -11.6 11.1
03:25 1017 30.03 847 25.01 -5.2 22.6 62 -11.5 11.4
03:30 1017 30.03 847 25.01 -5.3 22.4 63 -11.3 11.7
03:35 1017 30.03 847 25.01 -5.6 21.9 64 -11.3 11.6
03:40 1017 30.03 847 25.01 -5.5 22 64 -11.3 11.6
03:45 1017 30.03 847 25.01 -5.5 22.1 64 -11.3 11.7
03:50 1017 30.03 847 25.01 -5.3 22.4 63 -11.3 11.7
03:55 1017 30.03 846 24.98 -5.7 21.7 65 -11.3 11.6
04:00 1017 30.03 846 24.98 -6.1 21 64 -11.8 10.7
04:05 1017 30.03 846 24.98 -5.9 21.5 65 -11.4 11.5
04:10 1017 30.03 846 24.98 -6 21.3 66 -11.4 11.5
04:15 1017 30.03 846 24.98 -5.7 21.7 64 -11.5 11.3
04:20 1017 30.03 846 24.98 -5.2 22.7 62 -11.5 11.4
04:25 1017 30.03 846 24.98 -5.1 22.8 62 -11.3 11.6
04:30 1017 30.03 847 25.01 -5.1 22.9 63 -11.1 12.1
04:35 1017 30.03 847 25.01 -5 23 63 -11 12.3
04:40 1017 30.03 847 25.01 -5.1 22.9 61 -11.4 11.6
04:45 1017 30.03 847 25.01 -5.1 22.8 67 -10.4 13.2
04:50 1017 30.03 847 25.01 -5.5 22.2 65 -11.1 12
04:55 1017 30.03 847 25.01 -5.5 22.1 64 -11.3 11.7
05:00 1017 30.03 846 24.98 -5.3 22.4 64 -11.1 11.9
05:05 1017 30.03 847 25.01 -5.4 22.2 65 -11.1 12
05:10 1017 30.03 847 25.01 -5.3 22.6 64 -11.1 12
05:15 1018 30.06 847 25.01 -5.1 22.9 64 -10.8 12.5
05:20 1018 30.06 847 25.01 -5 23.1 63 -11.1 12.1
05:25 1018 30.06 847 25.01 -4.8 23.3 62 -11 12.2
05:30 1017 30.03 847 25.01 -4.7 23.6 63 -10.7 12.8
05:35 1017 30.03 847 25.01 -4.5 23.8 61 -11 12.1
05:40 1017 30.03 846 24.98 -4.6 23.8 61 -10.9 12.4
05:45 1017 30.03 846 24.98 -4.5 24 60 -11 12.2
05:50 1017 30.03 846 24.98 -3.9 25 61 -10.4 13.3
05:55 1017 30.03 846 24.98 -3.8 25.2 60 -10.4 13.3
06:00 1017 30.03 846 24.98 -3.5 25.6 60 -10.3 13.5
06:05 1017 30.03 846 24.98 -3.4 25.9 57 -10.8 12.6
06:10 1017 30.03 846 24.98 -3.3 26.1 58 -10.3 13.4
06:15 1017 30.03 846 24.98 -3.2 26.3 58 -10.4 13.3
06:20 1017 30.03 846 24.98 -3.2 26.3 58 -10.3 13.5
06:25 1017 30.03 846 24.98 -3.1 26.4 56 -10.8 12.5
06:30 1017 30.03 846 24.98 -2.6 27.3 53 -10.9 12.4
06:35 1017 30.03 846 24.98 -2.6 27.3 56 -10.1 13.7
06:40 1017 30.03 846 24.98 -2.8 26.9 57 -10.2 13.7
06:45 1017 30.03 846 24.98 -2.8 26.9 58 -9.9 14.1
06:50 1017 30.03 846 24.98 -2.6 27.2 55 -10.6 13
06:55 1017 30.03 846 24.98 -2.2 28 52 -10.7 12.7
07:00 1017 30.03 846 24.98 -2.1 28.2 54 -10.3 13.4
07:05 1017 30.03 846 24.98 -2.1 28.2 52 -10.6 12.9
07:10 1017 30.03 846 24.98 -1.9 28.6 53 -10.2 13.6
07:15 1017 30.03 846 24.98 -1.9 28.5 52 -10.5 13.2
07:20 1017 30.03 846 24.98 -1.8 28.8 51 -10.6 12.9
07:25 1017 30.03 846 24.98 -1.6 29.1 50 -10.6 12.9
07:30 1017 30.03 846 24.98 -1.5 29.3 50 -10.5 13
07:35 1017 30.03 846 24.98 -1.4 29.5 50 -10.6 13
07:40 1017 30.03 846 24.98 -1.3 29.7 49 -10.7 12.8
07:45 1017 30.03 846 24.98 -1.4 29.4 50 -10.5 13
07:50 1017 30.03 846 24.98 -1.5 29.4 51 -10.4 13.3
07:55 1017 30.03 846 24.98 -1.4 29.4 49 -10.9 12.4
08:00 1017 30.03 846 24.98 -1.2 29.8 49 -10.7 12.7
08:05 1017 30.03 846 24.98 -1 30.3 42 -12.3 9.9
08:10 1017 30.03 846 24.98 -0.4 31.3 43 -11.6 11
08:15 1017 30.03 846 24.98 -0.4 31.3 43 -11.6 11.1
08:20 1017 30.03 846 24.98 -0.3 31.4 42 -11.7 11
08:25 1017 30.03 846 24.98 -0.3 31.5 44 -11.3 11.7
08:30 1017 30.03 846 24.98 -0.3 31.5 43 -11.5 11.3
08:35 1017 30.03 846 24.98 -0.3 31.5 44 -11.2 11.9
08:40 1017 30.03 846 24.98 -0.3 31.4 45 -10.9 12.4
08:45 1017 30.03 846 24.98 -0.4 31.3 43 -11.6 11
08:50 1017 30.03 846 24.98 -0.2 31.6 42 -11.6 11
08:55 1017 30.03 846 24.98 0.1 32.2 41 -11.7 11
09:00 1017 30.03 846 24.98 0.2 32.4 39 -12 10.3
09:05 1017 30.03 846 24.98 0.4 32.7 40 -11.8 10.8
09:10 1017 30.03 846 24.98 0.5 32.9 38 -12.2 10
09:15 1017 30.03 846 24.98 0.6 33.2 38 -12.2 10
09:20 1017 30.03 846 24.98 0.6 33.1 40 -11.6 11.2
09:25 1017 30.03 846 24.98 0.5 33 39 -11.8 10.8
09:30 1017 30.03 846 24.98 0.5 33 40 -11.6 11.1
09:35 1017 30.03 846 24.98 0.5 32.8 41 -11.3 11.7
09:40 1017 30.03 846 24.98 0.5 32.9 40 -11.5 11.4
09:45 1017 30.03 846 24.98 0.6 33.1 41 -11.2 11.8
09:50 1017 30.03 846 24.98 0.6 33 41 -11.1 12
09:55 1017 30.03 846 24.98 0.6 33.1 41 -11.3 11.6
10:00 1017 30.03 846 24.98 0.8 33.5 40 -11.4 11.5
10:05 1017 30.03 846 24.98 1.2 34.1 39 -11.3 11.7
10:10 1017 30.03 846 24.98 1.4 34.5 39 -11.2 11.9
10:15 1017 30.03 846 24.98 1.6 34.9 39 -10.8 12.6
10:20 1017 30.03 846 24.98 1.7 35.1 37 -11.5 11.3
10:25 1017 30.03 846 24.98 1.8 35.3 37 -11.4 11.5
10:30 1016 30 846 24.98 1.9 35.5 37 -11.2 11.9
10:35 1016 30 846 24.98 2.3 36.2 36 -11.1 12
10:40 1016 30 845 24.95 2.7 36.9 36 -10.9 12.4
10:45 1016 30 845 24.95 2.9 37.3 36 -10.6 12.9
10:50 1016 30 845 24.95 3.1 37.5 38 -9.9 14.2
10:55 1016 30 845 24.95 3 37.4 36 -10.8 12.6
11:00 1016 30 845 24.95 2.9 37.3 38 -9.9 14.2
11:05 1016 30 845 24.95 2.9 37.3 41 -9.2 15.5
11:10 1016 30 845 24.95 2.8 37.1 39 -9.8 14.4
11:15 1016 30 845 24.95 2.7 36.9 41 -9.1 15.6
11:20 1016 30 845 24.95 2.8 37 40 -9.5 14.8
11:25 1015 29.97 845 24.95 3.1 37.5 41 -9 15.7
11:30 1015 29.97 844 24.92 3.2 37.8 39 -9.5 14.9
11:35 1015 29.97 844 24.92 3.5 38.2 39 -9.3 15.3
11:40 1015 29.97 844 24.92 3.4 38.2 38 -9.6 14.7
11:45 1015 29.97 844 24.92 3.6 38.5 38 -9.5 14.9
11:50 1015 29.97 844 24.92 3.7 38.7 34 -10.6 12.9
11:55 1015 29.97 844 24.92 3.8 38.8 34 -10.7 12.7
12:00 1015 29.97 844 24.92 3.9 39.1 34 -10.4 13.3
12:05 1015 29.97 844 24.92 4.6 40.2 32 -10.9 12.3
12:10 1015 29.97 844 24.92 5.4 41.8 30 -10.7 12.8
12:15 1015 29.97 844 24.92 5.5 41.8 31 -10.2 13.6
12:20 1015 29.97 844 24.92 5.7 42.2 29 -10.8 12.5
12:25 1015 29.97 844 24.92 6.1 43 31 -9.9 14.3
12:30 1015 29.97 844 24.92 6.4 43.5 30 -10 13.9
12:35 1015 29.97 844 24.92 6.6 43.9 28 -10.5 13.2
12:40 1015 29.97 844 24.92 6 42.9 30 -10.1 13.8
12:45 1015 29.97 844 24.92 5.1 41.3 31 -10.8 12.5
12:50 1015 29.97 844 24.92 5.3 41.6 31 -10.5 13.1
12:55 1015 29.97 844 24.92 5.2 41.4 33 -10 14.1
13:00 1015 29.97 844 24.92 5.9 42.7 31 -9.9 14.2
13:05 1015 29.97 844 24.92 6.4 43.5 30 -9.8 14.3
13:10 1015 29.97 844 24.92 6.4 43.5 32 -9.2 15.5
13:15 1015 29.97 844 24.92 6.1 43.1 32 -9.4 15
13:20 1015 29.97 844 24.92 5.8 42.5 32 -9.8 14.4
13:25 1015 29.97 844 24.92 6.4 43.5 32 -9.2 15.4
13:30 1015 29.97 844 24.92 6.3 43.3 33 -9 15.8
13:35 1015 29.97 844 24.92 6.7 44.1 31 -9.1 15.7
13:40 1015 29.97 844 24.92 6.7 44 33 -8.7 16.4
13:45 1014 29.94 844 24.92 6.2 43.2 34 -8.4 16.8
13:50 1014 29.94 844 24.92 6 42.7 37 -7.5 18.4
13:55 1014 29.94 843 24.89 5.7 42.3 35 -8.7 16.4
14:00 1014 29.94 843 24.89 5.6 42.1 38 -7.8 18
14:05 1014 29.94 843 24.89 5.5 41.9 38 -7.8 18
14:10 1014 29.94 843 24.89 5.5 42 37 -7.9 17.9
14:15 1014 29.94 843 24.89 5.7 42.3 37 -8 17.7
14:20 1014 29.94 843 24.89 6.2 43.1 34 -8.5 16.6
14:25 1014 29.94 843 24.89 6.1 42.9 34 -8.5 16.7
14:30 1014 29.94 843 24.89 5.8 42.4 38 -7.5 18.4
14:35 1014 29.94 843 24.89 6 42.8 35 -8.2 17.2
14:40 1014 29.94 843 24.89 6.4 43.5 35 -8 17.6
14:45 1014 29.94 843 24.89 6.3 43.3 34 -8.6 16.5
14:50 1014 29.94 843 24.89 6.1 42.9 38 -7.3 18.8
14:55 1014 29.94 843 24.89 5.8 42.5 38 -7.5 18.5
15:00 1014 29.94 843 24.89 5.9 42.6 37 -7.6 18.3
15:05 1013 29.91 843 24.89 5.9 42.7 38 -7.3 18.9
15:10 1014 29.94 843 24.89 6.1 42.9 40 -6.6 20
15:15 1014 29.94 843 24.89 6 42.8 40 -6.7 20
15:20 1014 29.94 843 24.89 5.7 42.3 39 -7.1 19.3
15:25 1014 29.94 843 24.89 5.6 42 40 -6.9 19.5
15:30 1014 29.94 843 24.89 5.5 41.9 41 -6.9 19.7
15:35 1014 29.94 843 24.89 5.5 41.9 40 -7.1 19.2
15:40 1014 29.94 843 24.89 5.4 41.7 42 -6.4 20.5
15:45 1014 29.94 843 24.89 5.3 41.5 45 -5.8 21.6
15:50 1014 29.94 843 24.89 5 41.1 44 -6.3 20.7
15:55 1014 29.94 843 24.89 5.1 41.1 43 -6.3 20.6
16:00 1014 29.94 843 24.89 5.1 41.2 45 -5.8 21.5
16:05 1014 29.94 843 24.89 5 41 45 -5.9 21.4
16:10 1014 29.94 843 24.89 4.9 40.8 47 -5.5 22.1
16:15 1014 29.94 843 24.89 4.8 40.7 46 -5.8 21.6
16:20 1014 29.94 843 24.89 4.7 40.5 48 -5.4 22.3
16:25 1014 29.94 843 24.89 4.6 40.3 48 -5.4 22.2
16:30 1014 29.94 843 24.89 4.6 40.2 48 -5.5 22.2
16:35 1014 29.94 843 24.89 4.6 40.3 46 -6 21.1
16:40 1014 29.94 843 24.89 4.7 40.5 46 -5.9 21.4
16:45 1014 29.94 843 24.89 4.6 40.3 47 -5.8 21.6
16:50 1014 29.94 843 24.89 4.6 40.3 48 -5.6 21.9
16:55 1014 29.94 843 24.89 4.5 40.1 48 -5.6 22
17:00 1014 29.94 843 24.89 4.5 40.1 48 -5.5 22
17:05 1014 29.94 843 24.89 4.5 40 48 -5.7 21.8
17:10 1014 29.94 843 24.89 4.5 40 49 -5.3 22.5
17:15 1014 29.94 843 24.89 4.3 39.8 51 -5 23
17:20 1014 29.94 843 24.89 4.2 39.6 51 -5 23.1
17:25 1014 29.94 843 24.89 4.2 39.5 54 -4.3 24.3
17:30 1014 29.94 843 24.89 4.1 39.3 54 -4.4 24
17:35 1014 29.94 844 24.92 4 39.1 58 -3.5 25.7
17:40 1014 29.94 843 24.89 3.5 38.4 63 -2.9 26.8
17:45 1015 29.97 844 24.92 3.1 37.6 65 -2.9 26.8
17:50 1015 29.97 844 24.92 3 37.3 66 -2.8 26.9
17:55 1015 29.97 844 24.92 2.9 37.2 66 -2.8 26.9
18:00 1015 29.97 844 24.92 2.8 37 66 -2.8 26.9
18:05 1015 29.97 844 24.92 2.9 37.2 66 -3 26.7
18:10 1015 29.97 844 24.92 2.9 37.2 69 -2.3 27.8
18:15 1015 29.97 845 24.95 2.7 36.8 71 -2.1 28.3
18:20 1016 30 845 24.95 2.6 36.6 72 -2.1 28.3
18:25 1016 30 845 24.95 2.5 36.5 72 -2.1 28.2
18:30 1016 30 845 24.95 2.4 36.3 73 -2 28.4
18:35 1016 30 845 24.95 2.3 36.2 74 -1.8 28.7
18:40 1016 30 845 24.95 2.3 36.1 72 -2.3 27.8
18:45 1016 30 845 24.95 2.4 36.3 71 -2.3 27.8
18:50 1016 30 845 24.95 2.4 36.3 69 -2.8 26.9
18:55 1016 30 845 24.95 2.5 36.5 68 -2.9 26.8
19:00 1016 30 845 24.95 2.5 36.5 68 -2.8 27
19:05 1016 30 845 24.95 2.4 36.2 69 -2.7 27.1
19:10 1016 30 846 24.98 2.3 36.1 69 -2.8 26.9
19:15 1016 30 846 24.98 2.3 36.1 67 -3.3 26.1
19:20 1017 30.03 846 24.98 2.3 36.1 65 -3.6 25.6
19:25 1017 30.03 846 24.98 2.3 36.1 62 -4.1 24.5
19:30 1017 30.03 846 24.98 2.3 36.1 63 -4.1 24.6
19:35 1017 30.03 846 24.98 2.1 35.8 64 -4 24.9
19:40 1017 30.03 847 25.01 1.8 35.2 73 -2.6 27.3
19:45 1018 30.06 847 25.01 0.2 32.4 81 -2.7 27.2
19:50 1018 30.06 847 25.01 -0.4 31.2 83 -3 26.5
19:55 1018 30.06 847 25.01 -0.6 30.9 83 -3.1 26.4
20:00 1018 30.06 847 25.01 -0.6 30.9 82 -3.3 26.1
20:05 1018 30.06 847 25.01 -0.4 31.3 82 -3.1 26.5
20:10 1018 30.06 847 25.01 -0.4 31.2 82 -3.2 26.3
20:15 1018 30.06 848 25.04 -0.4 31.3 79 -3.7 25.4
20:20 1018 30.06 848 25.04 -0.4 31.3 78 -3.7 25.3
20:25 1018 30.06 848 25.04 -0.3 31.4 77 -3.8 25.1
20:30 1018 30.06 848 25.04 -0.3 31.5 78 -3.8 25.2
20:35 1018 30.06 848 25.04 -0.2 31.6 78 -3.7 25.4
20:40 1019 30.09 848 25.04 -0.2 31.6 77 -3.8 25.2
20:45 1019 30.09 848 25.04 -0.1 31.7 76 -3.9 25
20:50 1019 30.09 848 25.04 -0 31.9 75 -3.9 24.9
20:55 1019 30.09 848 25.04 0.1 32.2 74 -4 24.8
21:00 1019 30.09 848 25.04 0.3 32.5 73 -4.1 24.7
21:05 1019 30.09 848 25.04 0.4 32.8 72 -4 24.8
21:10 1019 30.09 848 25.04 0.4 32.8 72 -4 24.8
21:15 1019 30.09 848 25.04 0.4 32.6 74 -3.8 25.2
21:20 1019 30.09 848 25.04 0.2 32.4 75 -3.8 25.2
21:25 1019 30.09 848 25.04 0.1 32.1 76 -3.7 25.4
21:30 1019 30.09 848 25.04 -0 32 77 -3.6 25.4
21:35 1019 30.09 849 25.07 0 32 76 -3.7 25.4
21:40 1019 30.09 849 25.07 -0 32 76 -3.7 25.4
21:45 1019 30.09 849 25.07 -0 32 77 -3.6 25.5
21:50 1020 30.12 849 25.07 -0.1 31.8 77 -3.7 25.3
21:55 1020 30.12 849 25.07 -0.1 31.8 76 -3.8 25.2
22:00 1020 30.12 849 25.07 -0.2 31.7 77 -3.7 25.3
22:05 1020 30.12 849 25.07 -0.3 31.4 77 -3.8 25.2
22:10 1020 30.12 849 25.07 -0.4 31.2 78 -3.8 25.2
22:15 1020 30.12 849 25.07 -0.5 31.1 78 -3.9 24.9
22:20 1020 30.12 849 25.07 -0.7 30.8 80 -3.7 25.3
22:25 1020 30.12 849 25.07 -1 30.2 82 -3.8 25.2
22:30 1020 30.12 849 25.07 -1.2 29.8 83 -3.8 25.2
22:35 1020 30.12 849 25.07 -1.3 29.6 83 -3.9 24.9
22:40 1020 30.12 849 25.07 -1.5 29.4 82 -4.1 24.6
22:45 1020 30.12 849 25.07 -1.6 29.2 82 -4.2 24.5
22:50 1020 30.12 849 25.07 -1.5 29.3 82 -4.2 24.5
22:55 1020 30.12 849 25.07 -1.4 29.5 83 -3.9 25
23:00 1020 30.12 850 25.1 -1.1 30 86 -3.2 26.2
23:05 1020 30.12 850 25.1 -1 30.3 89 -2.5 27.5
23:10 1021 30.15 850 25.1 -1.1 30 92 -2.3 27.9
23:15 1020 30.12 850 25.1 -1.3 29.7 93 -2.3 27.8
23:20 1021 30.15 850 25.1 -1.3 29.6 93 -2.4 27.7
23:25 1021 30.15 850 25.1 -1.4 29.5 92 -2.5 27.4
23:30 1021 30.15 850 25.1 -1.6 29.1 92 -2.7 27.2
23:35 1021 30.15 850 25.1 -1.7 29 93 -2.7 27.2
23:40 1021 30.15 850 25.1 -1.6 29.1 92 -2.7 27.1
23:45 1021 30.15 850 25.1 -1.9 28.6 92 -3 26.6
23:50 1021 30.15 850 25.1 -2.1 28.2 92 -3.2 26.2
23:55 1021 30.15 850 25.1 -2 28.4 91 -3.3 26.1
24:00 1021 30.15 850 25.1 -2 28.5 90 -3.4 25.8